sensor_id;sensor_type;location;lat;lon;timestamp;P1;durP1;ratioP1;P2;durP2;ratioP2
44516;SDS011;30223;17.182;-96.766;2022-08-26T00:01:48;3.85;;;3.38;;
44516;SDS011;30223;17.182;-96.766;2022-08-26T00:04:15;3.75;;;3.30;;
44516;SDS011;30223;17.182;-96.766;2022-08-26T00:06:42;4.40;;;2.60;;
44516;SDS011;30223;17.182;-96.766;2022-08-26T00:09:08;4.40;;;3.28;;
44516;SDS011;30223;17.182;-96.766;2022-08-26T00:11:35;3.90;;;3.50;;
44516;SDS011;30223;17.182;-96.766;2022-08-26T00:14:02;4.25;;;3.17;;
44516;SDS011;30223;17.182;-96.766;2022-08-26T00:16:29;6.15;;;3.88;;
44516;SDS011;30223;17.182;-96.766;2022-08-26T00:18:56;3.75;;;3.00;;
44516;SDS011;30223;17.182;-96.766;2022-08-26T00:21:22;3.17;;;2.88;;
44516;SDS011;30223;17.182;-96.766;2022-08-26T00:23:49;6.82;;;3.75;;
44516;SDS011;30223;17.182;-96.766;2022-08-26T00:26:15;3.40;;;2.67;;
44516;SDS011;30223;17.182;-96.766;2022-08-26T00:28:42;3.80;;;3.42;;
44516;SDS011;30223;17.182;-96.766;2022-08-26T00:31:09;4.00;;;3.40;;
44516;SDS011;30223;17.182;-96.766;2022-08-26T00:33:35;5.32;;;3.28;;
44516;SDS011;30223;17.182;-96.766;2022-08-26T00:36:02;2.92;;;2.35;;
44516;SDS011;30223;17.182;-96.766;2022-08-26T00:38:30;4.15;;;3.20;;
44516;SDS011;30223;17.182;-96.766;2022-08-26T00:40:56;4.32;;;3.40;;
44516;SDS011;30223;17.182;-96.766;2022-08-26T00:43:24;4.95;;;2.85;;
44516;SDS011;30223;17.182;-96.766;2022-08-26T00:45:55;5.07;;;3.13;;
44516;SDS011;30223;17.182;-96.766;2022-08-26T00:48:27;3.72;;;3.42;;
44516;SDS011;30223;17.182;-96.766;2022-08-26T00:51:02;3.90;;;3.50;;
44516;SDS011;30223;17.182;-96.766;2022-08-26T00:53:36;3.05;;;2.75;;
44516;SDS011;30223;17.182;-96.766;2022-08-26T00:56:19;5.70;;;4.03;;
44516;SDS011;30223;17.182;-96.766;2022-08-26T00:59:01;3.35;;;3.05;;
44516;SDS011;30223;17.182;-96.766;2022-08-26T01:01:32;3.25;;;2.95;;
44516;SDS011;30223;17.182;-96.766;2022-08-26T01:03:59;3.03;;;2.55;;
44516;SDS011;30223;17.182;-96.766;2022-08-26T01:06:27;3.60;;;2.72;;
44516;SDS011;30223;17.182;-96.766;2022-08-26T01:08:54;3.58;;;3.17;;
44516;SDS011;30223;17.182;-96.766;2022-08-26T01:11:22;3.28;;;2.60;;
44516;SDS011;30223;17.182;-96.766;2022-08-26T01:13:50;3.03;;;2.60;;
44516;SDS011;30223;17.182;-96.766;2022-08-26T01:16:21;3.90;;;2.72;;
44516;SDS011;30223;17.182;-96.766;2022-08-26T01:18:49;4.03;;;2.50;;
44516;SDS011;30223;17.182;-96.766;2022-08-26T01:21:27;3.78;;;2.83;;
44516;SDS011;30223;17.182;-96.766;2022-08-26T01:23:57;3.97;;;3.30;;
44516;SDS011;30223;17.182;-96.766;2022-08-26T01:26:27;3.53;;;2.63;;
44516;SDS011;30223;17.182;-96.766;2022-08-26T01:29:00;5.22;;;2.97;;
44516;SDS011;30223;17.182;-96.766;2022-08-26T01:31:30;2.78;;;2.17;;
44516;SDS011;30223;17.182;-96.766;2022-08-26T01:34:12;4.35;;;2.97;;
44516;SDS011;30223;17.182;-96.766;2022-08-26T01:36:52;3.35;;;2.72;;
44516;SDS011;30223;17.182;-96.766;2022-08-26T01:39:23;3.80;;;2.10;;
44516;SDS011;30223;17.182;-96.766;2022-08-26T01:41:51;3.85;;;2.60;;
44516;SDS011;30223;17.182;-96.766;2022-08-26T01:44:21;4.60;;;3.28;;
44516;SDS011;30223;17.182;-96.766;2022-08-26T01:46:50;3.63;;;2.80;;
44516;SDS011;30223;17.182;-96.766;2022-08-26T01:49:19;3.83;;;2.83;;
44516;SDS011;30223;17.182;-96.766;2022-08-26T01:51:48;3.40;;;2.37;;
44516;SDS011;30223;17.182;-96.766;2022-08-26T01:54:17;4.15;;;3.13;;
44516;SDS011;30223;17.182;-96.766;2022-08-26T01:56:43;6.13;;;3.17;;
44516;SDS011;30223;17.182;-96.766;2022-08-26T01:59:12;3.80;;;2.75;;
44516;SDS011;30223;17.182;-96.766;2022-08-26T02:01:41;4.88;;;2.70;;
44516;SDS011;30223;17.182;-96.766;2022-08-26T02:06:52;3.55;;;2.65;;
44516;SDS011;30223;17.182;-96.766;2022-08-26T02:09:21;3.55;;;3.10;;
44516;SDS011;30223;17.182;-96.766;2022-08-26T02:11:49;3.20;;;2.58;;
44516;SDS011;30223;17.182;-96.766;2022-08-26T02:14:20;4.88;;;2.50;;
44516;SDS011;30223;17.182;-96.766;2022-08-26T02:16:51;3.75;;;3.13;;
44516;SDS011;30223;17.182;-96.766;2022-08-26T02:19:19;4.07;;;3.25;;
44516;SDS011;30223;17.182;-96.766;2022-08-26T02:21:49;3.85;;;3.40;;
44516;SDS011;30223;17.182;-96.766;2022-08-26T02:24:21;3.30;;;2.60;;
44516;SDS011;30223;17.182;-96.766;2022-08-26T02:26:50;3.72;;;2.92;;
44516;SDS011;30223;17.182;-96.766;2022-08-26T02:31:53;2.85;;;2.50;;
44516;SDS011;30223;17.182;-96.766;2022-08-26T02:34:22;2.85;;;2.08;;
44516;SDS011;30223;17.182;-96.766;2022-08-26T02:36:55;2.78;;;2.03;;
44516;SDS011;30223;17.182;-96.766;2022-08-26T02:39:22;3.93;;;2.90;;
44516;SDS011;30223;17.182;-96.766;2022-08-26T02:41:49;3.40;;;2.83;;
44516;SDS011;30223;17.182;-96.766;2022-08-26T02:44:16;3.30;;;2.28;;
44516;SDS011;30223;17.182;-96.766;2022-08-26T02:46:43;2.45;;;2.22;;
44516;SDS011;30223;17.182;-96.766;2022-08-26T02:49:10;3.03;;;2.60;;
44516;SDS011;30223;17.182;-96.766;2022-08-26T02:51:36;3.75;;;2.97;;
44516;SDS011;30223;17.182;-96.766;2022-08-26T02:54:03;2.22;;;1.98;;
44516;SDS011;30223;17.182;-96.766;2022-08-26T02:56:31;2.92;;;2.63;;
44516;SDS011;30223;17.182;-96.766;2022-08-26T03:01:26;2.95;;;2.30;;
44516;SDS011;30223;17.182;-96.766;2022-08-26T03:03:55;2.88;;;2.40;;
44516;SDS011;30223;17.182;-96.766;2022-08-26T03:06:22;3.35;;;2.67;;
44516;SDS011;30223;17.182;-96.766;2022-08-26T03:08:49;2.83;;;2.35;;
44516;SDS011;30223;17.182;-96.766;2022-08-26T03:11:16;2.40;;;2.00;;
44516;SDS011;30223;17.182;-96.766;2022-08-26T03:13:44;3.13;;;2.80;;
44516;SDS011;30223;17.182;-96.766;2022-08-26T03:16:11;3.13;;;1.65;;
44516;SDS011;30223;17.182;-96.766;2022-08-26T03:18:39;8.17;;;2.30;;
44516;SDS011;30223;17.182;-96.766;2022-08-26T03:21:06;3.88;;;2.40;;
44516;SDS011;30223;17.182;-96.766;2022-08-26T03:23:35;2.15;;;1.92;;
44516;SDS011;30223;17.182;-96.766;2022-08-26T03:26:03;2.88;;;2.30;;
44516;SDS011;30223;17.182;-96.766;2022-08-26T03:28:30;3.45;;;2.28;;
44516;SDS011;30223;17.182;-96.766;2022-08-26T03:30:57;2.25;;;1.88;;
44516;SDS011;30223;17.182;-96.766;2022-08-26T03:33:24;2.70;;;2.20;;
44516;SDS011;30223;17.182;-96.766;2022-08-26T03:35:51;2.40;;;2.20;;
44516;SDS011;30223;17.182;-96.766;2022-08-26T03:38:18;2.28;;;1.92;;
44516;SDS011;30223;17.182;-96.766;2022-08-26T03:40:46;2.83;;;1.92;;
44516;SDS011;30223;17.182;-96.766;2022-08-26T03:43:14;2.38;;;2.10;;
44516;SDS011;30223;17.182;-96.766;2022-08-26T03:45:41;2.63;;;2.40;;
44516;SDS011;30223;17.182;-96.766;2022-08-26T03:48:08;3.63;;;2.83;;
44516;SDS011;30223;17.182;-96.766;2022-08-26T03:50:37;2.25;;;1.90;;
44516;SDS011;30223;17.182;-96.766;2022-08-26T03:53:04;2.75;;;2.40;;
44516;SDS011;30223;17.182;-96.766;2022-08-26T03:55:31;2.80;;;2.40;;
44516;SDS011;30223;17.182;-96.766;2022-08-26T03:57:58;2.75;;;2.55;;
44516;SDS011;30223;17.182;-96.766;2022-08-26T04:00:25;3.50;;;2.30;;
44516;SDS011;30223;17.182;-96.766;2022-08-26T04:02:52;2.78;;;1.90;;
44516;SDS011;30223;17.182;-96.766;2022-08-26T04:05:19;3.03;;;2.15;;
44516;SDS011;30223;17.182;-96.766;2022-08-26T04:07:47;2.65;;;2.13;;
44516;SDS011;30223;17.182;-96.766;2022-08-26T04:10:15;3.90;;;2.05;;
44516;SDS011;30223;17.182;-96.766;2022-08-26T04:12:43;3.08;;;2.17;;
44516;SDS011;30223;17.182;-96.766;2022-08-26T04:15:11;2.78;;;2.25;;
44516;SDS011;30223;17.182;-96.766;2022-08-26T04:17:39;3.15;;;2.60;;
44516;SDS011;30223;17.182;-96.766;2022-08-26T04:20:07;2.63;;;1.67;;
44516;SDS011;30223;17.182;-96.766;2022-08-26T04:22:38;2.28;;;2.03;;
44516;SDS011;30223;17.182;-96.766;2022-08-26T04:25:07;3.17;;;2.17;;
44516;SDS011;30223;17.182;-96.766;2022-08-26T04:27:34;4.05;;;3.17;;
44516;SDS011;30223;17.182;-96.766;2022-08-26T04:30:01;3.08;;;2.72;;
44516;SDS011;30223;17.182;-96.766;2022-08-26T04:32:28;3.05;;;2.65;;
44516;SDS011;30223;17.182;-96.766;2022-08-26T04:34:55;2.92;;;2.22;;
44516;SDS011;30223;17.182;-96.766;2022-08-26T04:37:21;2.78;;;2.53;;
44516;SDS011;30223;17.182;-96.766;2022-08-26T04:39:51;3.63;;;2.50;;
44516;SDS011;30223;17.182;-96.766;2022-08-26T04:42:18;3.38;;;1.83;;
44516;SDS011;30223;17.182;-96.766;2022-08-26T04:44:45;3.05;;;2.75;;
44516;SDS011;30223;17.182;-96.766;2022-08-26T04:47:11;2.08;;;1.88;;
44516;SDS011;30223;17.182;-96.766;2022-08-26T04:49:38;2.70;;;2.15;;
44516;SDS011;30223;17.182;-96.766;2022-08-26T04:52:04;2.35;;;1.95;;
44516;SDS011;30223;17.182;-96.766;2022-08-26T04:54:31;2.70;;;2.10;;
44516;SDS011;30223;17.182;-96.766;2022-08-26T04:56:58;2.33;;;1.90;;
44516;SDS011;30223;17.182;-96.766;2022-08-26T04:59:24;6.38;;;2.42;;
44516;SDS011;30223;17.182;-96.766;2022-08-26T05:01:52;3.22;;;2.30;;
44516;SDS011;30223;17.182;-96.766;2022-08-26T05:04:23;2.75;;;1.90;;
44516;SDS011;30223;17.182;-96.766;2022-08-26T05:06:50;2.55;;;1.98;;
44516;SDS011;30223;17.182;-96.766;2022-08-26T05:09:17;3.25;;;2.13;;
44516;SDS011;30223;17.182;-96.766;2022-08-26T05:11:44;3.00;;;2.10;;
44516;SDS011;30223;17.182;-96.766;2022-08-26T05:14:12;4.00;;;2.65;;
44516;SDS011;30223;17.182;-96.766;2022-08-26T05:16:39;2.10;;;1.80;;
44516;SDS011;30223;17.182;-96.766;2022-08-26T05:19:06;3.00;;;1.88;;
44516;SDS011;30223;17.182;-96.766;2022-08-26T05:21:32;2.25;;;1.67;;
44516;SDS011;30223;17.182;-96.766;2022-08-26T05:23:59;2.42;;;1.88;;
44516;SDS011;30223;17.182;-96.766;2022-08-26T05:26:27;1.90;;;1.70;;
44516;SDS011;30223;17.182;-96.766;2022-08-26T05:28:55;2.03;;;1.50;;
44516;SDS011;30223;17.182;-96.766;2022-08-26T05:31:23;3.53;;;2.30;;
44516;SDS011;30223;17.182;-96.766;2022-08-26T05:33:52;2.70;;;2.30;;
44516;SDS011;30223;17.182;-96.766;2022-08-26T05:36:21;1.98;;;1.88;;
44516;SDS011;30223;17.182;-96.766;2022-08-26T05:38:49;2.45;;;1.83;;
44516;SDS011;30223;17.182;-96.766;2022-08-26T05:41:18;3.00;;;1.42;;
44516;SDS011;30223;17.182;-96.766;2022-08-26T05:43:49;2.97;;;2.60;;
44516;SDS011;30223;17.182;-96.766;2022-08-26T05:46:16;2.00;;;1.80;;
44516;SDS011;30223;17.182;-96.766;2022-08-26T05:48:43;2.95;;;2.35;;
44516;SDS011;30223;17.182;-96.766;2022-08-26T05:51:11;2.47;;;2.08;;
44516;SDS011;30223;17.182;-96.766;2022-08-26T05:53:39;2.70;;;2.20;;
44516;SDS011;30223;17.182;-96.766;2022-08-26T05:56:07;2.80;;;1.73;;
44516;SDS011;30223;17.182;-96.766;2022-08-26T05:58:35;3.00;;;2.13;;
44516;SDS011;30223;17.182;-96.766;2022-08-26T06:03:30;2.47;;;2.25;;
44516;SDS011;30223;17.182;-96.766;2022-08-26T06:05:58;2.35;;;2.13;;
44516;SDS011;30223;17.182;-96.766;2022-08-26T06:08:31;5.30;;;1.33;;
44516;SDS011;30223;17.182;-96.766;2022-08-26T06:11:00;2.17;;;1.98;;
44516;SDS011;30223;17.182;-96.766;2022-08-26T06:13:28;2.63;;;2.15;;
44516;SDS011;30223;17.182;-96.766;2022-08-26T06:15:56;3.05;;;2.22;;
44516;SDS011;30223;17.182;-96.766;2022-08-26T06:18:25;2.30;;;1.70;;
44516;SDS011;30223;17.182;-96.766;2022-08-26T06:20:57;2.35;;;1.60;;
44516;SDS011;30223;17.182;-96.766;2022-08-26T06:23:24;2.03;;;1.67;;
44516;SDS011;30223;17.182;-96.766;2022-08-26T06:26:12;2.28;;;1.90;;
44516;SDS011;30223;17.182;-96.766;2022-08-26T06:28:40;2.05;;;1.45;;
44516;SDS011;30223;17.182;-96.766;2022-08-26T06:31:08;2.75;;;1.70;;
44516;SDS011;30223;17.182;-96.766;2022-08-26T06:33:34;1.77;;;1.65;;
44516;SDS011;30223;17.182;-96.766;2022-08-26T06:36:01;3.97;;;2.08;;
44516;SDS011;30223;17.182;-96.766;2022-08-26T06:38:28;2.67;;;1.90;;
44516;SDS011;30223;17.182;-96.766;2022-08-26T06:40:55;2.63;;;1.90;;
44516;SDS011;30223;17.182;-96.766;2022-08-26T06:43:23;2.55;;;1.63;;
44516;SDS011;30223;17.182;-96.766;2022-08-26T06:45:51;2.22;;;1.80;;
44516;SDS011;30223;17.182;-96.766;2022-08-26T06:48:25;3.10;;;2.05;;
44516;SDS011;30223;17.182;-96.766;2022-08-26T06:51:00;2.38;;;1.52;;
44516;SDS011;30223;17.182;-96.766;2022-08-26T06:53:28;2.85;;;1.25;;
44516;SDS011;30223;17.182;-96.766;2022-08-26T06:55:55;2.65;;;2.40;;
44516;SDS011;30223;17.182;-96.766;2022-08-26T06:58:22;2.42;;;1.88;;
44516;SDS011;30223;17.182;-96.766;2022-08-26T07:00:48;2.58;;;2.00;;
44516;SDS011;30223;17.182;-96.766;2022-08-26T07:03:15;2.67;;;1.98;;
44516;SDS011;30223;17.182;-96.766;2022-08-26T07:05:42;2.22;;;1.63;;
44516;SDS011;30223;17.182;-96.766;2022-08-26T07:08:08;4.05;;;2.25;;
44516;SDS011;30223;17.182;-96.766;2022-08-26T07:10:35;2.17;;;1.65;;
44516;SDS011;30223;17.182;-96.766;2022-08-26T07:13:01;2.22;;;1.73;;
44516;SDS011;30223;17.182;-96.766;2022-08-26T07:15:28;1.77;;;1.58;;
44516;SDS011;30223;17.182;-96.766;2022-08-26T07:17:55;3.00;;;1.60;;
44516;SDS011;30223;17.182;-96.766;2022-08-26T07:20:21;2.80;;;1.83;;
44516;SDS011;30223;17.182;-96.766;2022-08-26T07:22:48;2.38;;;1.63;;
44516;SDS011;30223;17.182;-96.766;2022-08-26T07:25:14;2.13;;;1.48;;
44516;SDS011;30223;17.182;-96.766;2022-08-26T07:27:41;1.88;;;1.63;;
44516;SDS011;30223;17.182;-96.766;2022-08-26T07:30:08;2.97;;;1.77;;
44516;SDS011;30223;17.182;-96.766;2022-08-26T07:32:35;2.97;;;2.08;;
44516;SDS011;30223;17.182;-96.766;2022-08-26T07:35:02;2.35;;;1.90;;
44516;SDS011;30223;17.182;-96.766;2022-08-26T07:37:30;2.03;;;1.40;;
44516;SDS011;30223;17.182;-96.766;2022-08-26T07:39:57;1.98;;;1.52;;
44516;SDS011;30223;17.182;-96.766;2022-08-26T07:42:23;3.78;;;2.22;;
44516;SDS011;30223;17.182;-96.766;2022-08-26T07:44:50;3.97;;;1.77;;
44516;SDS011;30223;17.182;-96.766;2022-08-26T07:47:17;3.72;;;1.83;;
44516;SDS011;30223;17.182;-96.766;2022-08-26T07:49:43;1.90;;;1.45;;
44516;SDS011;30223;17.182;-96.766;2022-08-26T07:52:10;2.50;;;1.63;;
44516;SDS011;30223;17.182;-96.766;2022-08-26T07:54:37;3.42;;;2.13;;
44516;SDS011;30223;17.182;-96.766;2022-08-26T07:57:04;2.97;;;1.85;;
44516;SDS011;30223;17.182;-96.766;2022-08-26T07:59:31;2.05;;;1.55;;
44516;SDS011;30223;17.182;-96.766;2022-08-26T08:01:58;2.53;;;2.28;;
44516;SDS011;30223;17.182;-96.766;2022-08-26T08:04:25;3.75;;;1.92;;
44516;SDS011;30223;17.182;-96.766;2022-08-26T08:06:53;2.35;;;1.60;;
44516;SDS011;30223;17.182;-96.766;2022-08-26T08:09:20;1.92;;;1.60;;
44516;SDS011;30223;17.182;-96.766;2022-08-26T08:11:47;2.67;;;1.98;;
44516;SDS011;30223;17.182;-96.766;2022-08-26T08:14:14;2.10;;;1.85;;
44516;SDS011;30223;17.182;-96.766;2022-08-26T08:16:42;3.37;;;1.80;;
44516;SDS011;30223;17.182;-96.766;2022-08-26T08:19:09;2.00;;;1.80;;
44516;SDS011;30223;17.182;-96.766;2022-08-26T08:21:35;2.65;;;1.95;;
44516;SDS011;30223;17.182;-96.766;2022-08-26T08:24:02;2.33;;;2.00;;
44516;SDS011;30223;17.182;-96.766;2022-08-26T08:26:29;2.38;;;1.42;;
44516;SDS011;30223;17.182;-96.766;2022-08-26T08:28:55;3.15;;;2.00;;
44516;SDS011;30223;17.182;-96.766;2022-08-26T08:31:29;2.08;;;1.25;;
44516;SDS011;30223;17.182;-96.766;2022-08-26T08:33:58;2.60;;;1.45;;
44516;SDS011;30223;17.182;-96.766;2022-08-26T08:36:24;5.40;;;1.50;;
44516;SDS011;30223;17.182;-96.766;2022-08-26T08:38:51;2.30;;;1.67;;
44516;SDS011;30223;17.182;-96.766;2022-08-26T08:41:28;2.30;;;1.88;;
44516;SDS011;30223;17.182;-96.766;2022-08-26T08:43:59;2.33;;;1.58;;
44516;SDS011;30223;17.182;-96.766;2022-08-26T08:46:27;2.47;;;1.60;;
44516;SDS011;30223;17.182;-96.766;2022-08-26T08:48:55;1.88;;;1.60;;
44516;SDS011;30223;17.182;-96.766;2022-08-26T08:51:39;2.60;;;2.25;;
44516;SDS011;30223;17.182;-96.766;2022-08-26T08:54:11;2.75;;;1.92;;
44516;SDS011;30223;17.182;-96.766;2022-08-26T08:56:39;2.13;;;1.42;;
44516;SDS011;30223;17.182;-96.766;2022-08-26T09:06:42;2.28;;;1.80;;
44516;SDS011;30223;17.182;-96.766;2022-08-26T09:09:13;2.42;;;1.80;;
44516;SDS011;30223;17.182;-96.766;2022-08-26T09:11:48;2.00;;;1.40;;
44516;SDS011;30223;17.182;-96.766;2022-08-26T09:14:15;3.08;;;1.48;;
44516;SDS011;30223;17.182;-96.766;2022-08-26T09:16:45;1.70;;;1.40;;
44516;SDS011;30223;17.182;-96.766;2022-08-26T09:22:01;1.90;;;1.33;;
44516;SDS011;30223;17.182;-96.766;2022-08-26T09:24:28;2.25;;;1.65;;
44516;SDS011;30223;17.182;-96.766;2022-08-26T09:26:59;3.13;;;2.42;;
44516;SDS011;30223;17.182;-96.766;2022-08-26T09:29:29;1.77;;;1.60;;
44516;SDS011;30223;17.182;-96.766;2022-08-26T09:32:18;2.40;;;1.60;;
44516;SDS011;30223;17.182;-96.766;2022-08-26T09:34:53;2.25;;;1.70;;
44516;SDS011;30223;17.182;-96.766;2022-08-26T09:37:34;2.35;;;1.40;;
44516;SDS011;30223;17.182;-96.766;2022-08-26T09:40:17;3.10;;;1.73;;
44516;SDS011;30223;17.182;-96.766;2022-08-26T09:45:34;1.65;;;1.40;;
44516;SDS011;30223;17.182;-96.766;2022-08-26T09:48:01;2.80;;;1.50;;
44516;SDS011;30223;17.182;-96.766;2022-08-26T09:50:39;2.00;;;1.80;;
44516;SDS011;30223;17.182;-96.766;2022-08-26T09:53:16;2.45;;;2.17;;
44516;SDS011;30223;17.182;-96.766;2022-08-26T09:55:46;2.33;;;1.40;;
44516;SDS011;30223;17.182;-96.766;2022-08-26T09:58:35;3.45;;;1.35;;
44516;SDS011;30223;17.182;-96.766;2022-08-26T10:01:07;2.22;;;1.73;;
44516;SDS011;30223;17.182;-96.766;2022-08-26T10:03:39;1.90;;;1.60;;
44516;SDS011;30223;17.182;-96.766;2022-08-26T10:08:45;1.90;;;1.70;;
44516;SDS011;30223;17.182;-96.766;2022-08-26T10:11:43;2.10;;;1.70;;
44516;SDS011;30223;17.182;-96.766;2022-08-26T10:16:54;2.35;;;1.70;;
44516;SDS011;30223;17.182;-96.766;2022-08-26T10:19:40;1.85;;;1.55;;
44516;SDS011;30223;17.182;-96.766;2022-08-26T10:25:02;3.00;;;1.85;;
44516;SDS011;30223;17.182;-96.766;2022-08-26T10:27:47;1.42;;;1.20;;
44516;SDS011;30223;17.182;-96.766;2022-08-26T10:30:31;3.17;;;1.60;;
44516;SDS011;30223;17.182;-96.766;2022-08-26T10:33:11;2.80;;;1.70;;
44516;SDS011;30223;17.182;-96.766;2022-08-26T10:35:56;1.83;;;1.42;;
44516;SDS011;30223;17.182;-96.766;2022-08-26T10:38:32;2.33;;;1.55;;
44516;SDS011;30223;17.182;-96.766;2022-08-26T10:41:06;1.75;;;1.65;;
44516;SDS011;30223;17.182;-96.766;2022-08-26T10:43:40;2.47;;;1.48;;
44516;SDS011;30223;17.182;-96.766;2022-08-26T10:46:14;1.58;;;1.38;;
44516;SDS011;30223;17.182;-96.766;2022-08-26T10:48:54;2.30;;;1.55;;
44516;SDS011;30223;17.182;-96.766;2022-08-26T10:51:30;2.10;;;1.75;;
44516;SDS011;30223;17.182;-96.766;2022-08-26T10:54:05;4.07;;;1.58;;
44516;SDS011;30223;17.182;-96.766;2022-08-26T10:57:07;2.47;;;1.55;;
44516;SDS011;30223;17.182;-96.766;2022-08-26T11:02:16;2.22;;;1.30;;
44516;SDS011;30223;17.182;-96.766;2022-08-26T11:07:30;1.52;;;1.42;;
44516;SDS011;30223;17.182;-96.766;2022-08-26T11:10:08;1.75;;;1.33;;
44516;SDS011;30223;17.182;-96.766;2022-08-26T11:22:48;1.52;;;1.30;;
44516;SDS011;30223;17.182;-96.766;2022-08-26T11:25:16;2.40;;;1.75;;
44516;SDS011;30223;17.182;-96.766;2022-08-26T11:32:55;2.25;;;1.25;;
44516;SDS011;30223;17.182;-96.766;2022-08-26T11:40:37;1.67;;;1.38;;
44516;SDS011;30223;17.182;-96.766;2022-08-26T11:43:07;3.63;;;1.48;;
44516;SDS011;30223;17.182;-96.766;2022-08-26T11:45:43;1.20;;;1.08;;
44516;SDS011;30223;17.182;-96.766;2022-08-26T11:48:13;1.65;;;1.10;;
44516;SDS011;30223;17.182;-96.766;2022-08-26T11:50:50;1.98;;;1.25;;
44516;SDS011;30223;17.182;-96.766;2022-08-26T11:53:18;1.38;;;1.20;;
44516;SDS011;30223;17.182;-96.766;2022-08-26T11:55:45;2.15;;;0.93;;
44516;SDS011;30223;17.182;-96.766;2022-08-26T11:58:13;1.47;;;1.23;;
44516;SDS011;30223;17.182;-96.766;2022-08-26T12:03:17;1.58;;;1.38;;
44516;SDS011;30223;17.182;-96.766;2022-08-26T12:05:47;2.13;;;1.38;;
44516;SDS011;30223;17.182;-96.766;2022-08-26T12:10:48;1.85;;;1.17;;
44516;SDS011;30223;17.182;-96.766;2022-08-26T12:13:25;1.70;;;0.90;;
44516;SDS011;30223;17.182;-96.766;2022-08-26T12:15:53;2.00;;;1.05;;
44516;SDS011;30223;17.182;-96.766;2022-08-26T12:18:24;2.53;;;1.00;;
44516;SDS011;30223;17.182;-96.766;2022-08-26T12:20:59;2.40;;;1.35;;
44516;SDS011;30223;17.182;-96.766;2022-08-26T12:23:41;1.45;;;0.93;;
44516;SDS011;30223;17.182;-96.766;2022-08-26T12:28:56;0.98;;;0.93;;
44516;SDS011;30223;17.182;-96.766;2022-08-26T12:31:38;1.35;;;0.93;;
44516;SDS011;30223;17.182;-96.766;2022-08-26T12:34:08;1.58;;;1.00;;
44516;SDS011;30223;17.182;-96.766;2022-08-26T12:36:38;1.20;;;1.10;;
44516;SDS011;30223;17.182;-96.766;2022-08-26T12:39:24;3.10;;;1.30;;
44516;SDS011;30223;17.182;-96.766;2022-08-26T12:41:58;2.08;;;1.40;;
44516;SDS011;30223;17.182;-96.766;2022-08-26T12:47:23;2.70;;;1.35;;
44516;SDS011;30223;17.182;-96.766;2022-08-26T12:50:04;2.00;;;1.20;;
44516;SDS011;30223;17.182;-96.766;2022-08-26T12:52:42;2.10;;;0.85;;
44516;SDS011;30223;17.182;-96.766;2022-08-26T12:58:24;1.55;;;0.95;;
44516;SDS011;30223;17.182;-96.766;2022-08-26T13:13:47;1.38;;;0.85;;
44516;SDS011;30223;17.182;-96.766;2022-08-26T13:16:19;1.50;;;1.00;;
44516;SDS011;30223;17.182;-96.766;2022-08-26T13:18:47;2.72;;;0.90;;
44516;SDS011;30223;17.182;-96.766;2022-08-26T13:21:20;1.48;;;1.10;;
44516;SDS011;30223;17.182;-96.766;2022-08-26T13:23:49;1.50;;;1.13;;
44516;SDS011;30223;17.182;-96.766;2022-08-26T13:26:16;1.45;;;1.05;;
44516;SDS011;30223;17.182;-96.766;2022-08-26T13:28:44;1.17;;;0.93;;
44516;SDS011;30223;17.182;-96.766;2022-08-26T13:31:12;1.33;;;0.98;;
44516;SDS011;30223;17.182;-96.766;2022-08-26T13:33:40;2.40;;;1.40;;
44516;SDS011;30223;17.182;-96.766;2022-08-26T13:36:08;2.37;;;1.13;;
44516;SDS011;30223;17.182;-96.766;2022-08-26T13:38:35;2.15;;;1.10;;
44516;SDS011;30223;17.182;-96.766;2022-08-26T13:41:02;1.35;;;1.05;;
44516;SDS011;30223;17.182;-96.766;2022-08-26T13:43:30;1.52;;;1.17;;
44516;SDS011;30223;17.182;-96.766;2022-08-26T13:45:57;1.42;;;1.33;;
44516;SDS011;30223;17.182;-96.766;2022-08-26T13:48:24;1.60;;;1.27;;
44516;SDS011;30223;17.182;-96.766;2022-08-26T13:50:51;1.17;;;1.08;;
44516;SDS011;30223;17.182;-96.766;2022-08-26T13:53:18;1.30;;;0.95;;
44516;SDS011;30223;17.182;-96.766;2022-08-26T13:55:44;3.22;;;1.10;;
44516;SDS011;30223;17.182;-96.766;2022-08-26T13:58:12;2.20;;;1.15;;
44516;SDS011;30223;17.182;-96.766;2022-08-26T14:00:38;0.90;;;0.82;;
44516;SDS011;30223;17.182;-96.766;2022-08-26T14:03:05;1.38;;;1.27;;
44516;SDS011;30223;17.182;-96.766;2022-08-26T14:05:32;1.08;;;0.98;;
44516;SDS011;30223;17.182;-96.766;2022-08-26T14:07:58;1.80;;;1.02;;
44516;SDS011;30223;17.182;-96.766;2022-08-26T14:10:25;2.03;;;1.30;;
44516;SDS011;30223;17.182;-96.766;2022-08-26T14:12:53;1.55;;;1.20;;
44516;SDS011;30223;17.182;-96.766;2022-08-26T14:15:19;1.10;;;0.90;;
44516;SDS011;30223;17.182;-96.766;2022-08-26T14:17:46;1.50;;;0.98;;
44516;SDS011;30223;17.182;-96.766;2022-08-26T14:20:15;2.05;;;1.20;;
44516;SDS011;30223;17.182;-96.766;2022-08-26T14:22:48;1.27;;;1.00;;
44516;SDS011;30223;17.182;-96.766;2022-08-26T14:25:15;1.40;;;0.90;;
44516;SDS011;30223;17.182;-96.766;2022-08-26T14:27:42;1.70;;;1.60;;
44516;SDS011;30223;17.182;-96.766;2022-08-26T14:30:09;1.00;;;0.90;;
44516;SDS011;30223;17.182;-96.766;2022-08-26T14:32:37;1.17;;;1.08;;
44516;SDS011;30223;17.182;-96.766;2022-08-26T14:35:07;1.35;;;0.82;;
44516;SDS011;30223;17.182;-96.766;2022-08-26T14:37:35;1.17;;;0.77;;
44516;SDS011;30223;17.182;-96.766;2022-08-26T14:40:02;1.88;;;1.10;;
44516;SDS011;30223;17.182;-96.766;2022-08-26T14:42:30;1.45;;;0.95;;
44516;SDS011;30223;17.182;-96.766;2022-08-26T14:47:27;3.38;;;1.15;;
44516;SDS011;30223;17.182;-96.766;2022-08-26T14:49:54;2.25;;;1.10;;
44516;SDS011;30223;17.182;-96.766;2022-08-26T14:52:20;1.58;;;1.45;;
44516;SDS011;30223;17.182;-96.766;2022-08-26T14:54:47;1.70;;;0.93;;
44516;SDS011;30223;17.182;-96.766;2022-08-26T14:57:13;1.02;;;0.93;;
44516;SDS011;30223;17.182;-96.766;2022-08-26T14:59:41;1.50;;;1.40;;
44516;SDS011;30223;17.182;-96.766;2022-08-26T15:02:10;2.17;;;0.75;;
44516;SDS011;30223;17.182;-96.766;2022-08-26T15:07:05;1.58;;;1.00;;
44516;SDS011;30223;17.182;-96.766;2022-08-26T15:09:35;2.00;;;1.10;;
44516;SDS011;30223;17.182;-96.766;2022-08-26T15:12:03;1.30;;;1.20;;
44516;SDS011;30223;17.182;-96.766;2022-08-26T15:14:30;1.67;;;1.35;;
44516;SDS011;30223;17.182;-96.766;2022-08-26T15:16:57;2.25;;;1.35;;
44516;SDS011;30223;17.182;-96.766;2022-08-26T15:19:24;1.13;;;1.00;;
44516;SDS011;30223;17.182;-96.766;2022-08-26T15:21:51;1.95;;;1.35;;
44516;SDS011;30223;17.182;-96.766;2022-08-26T15:24:19;1.40;;;0.95;;
44516;SDS011;30223;17.182;-96.766;2022-08-26T15:26:47;1.48;;;1.08;;
44516;SDS011;30223;17.182;-96.766;2022-08-26T15:29:14;1.52;;;1.42;;
44516;SDS011;30223;17.182;-96.766;2022-08-26T15:31:41;1.33;;;1.10;;
44516;SDS011;30223;17.182;-96.766;2022-08-26T15:34:09;1.27;;;1.02;;
44516;SDS011;30223;17.182;-96.766;2022-08-26T15:36:37;1.35;;;1.15;;
44516;SDS011;30223;17.182;-96.766;2022-08-26T15:39:05;1.13;;;1.02;;
44516;SDS011;30223;17.182;-96.766;2022-08-26T15:41:32;1.50;;;1.27;;
44516;SDS011;30223;17.182;-96.766;2022-08-26T15:43:59;2.38;;;1.35;;
44516;SDS011;30223;17.182;-96.766;2022-08-26T15:46:26;1.73;;;1.30;;
44516;SDS011;30223;17.182;-96.766;2022-08-26T15:48:52;2.08;;;1.27;;
44516;SDS011;30223;17.182;-96.766;2022-08-26T15:51:29;1.60;;;1.10;;
44516;SDS011;30223;17.182;-96.766;2022-08-26T15:54:00;1.85;;;1.17;;
44516;SDS011;30223;17.182;-96.766;2022-08-26T15:56:32;1.13;;;0.93;;
44516;SDS011;30223;17.182;-96.766;2022-08-26T15:59:00;0.98;;;0.88;;
44516;SDS011;30223;17.182;-96.766;2022-08-26T16:01:28;2.93;;;1.10;;
44516;SDS011;30223;17.182;-96.766;2022-08-26T16:03:56;2.45;;;1.50;;